createdAt,value
2023-04-13T00:00:29.243Z,4.87
2023-04-13T00:01:52.048Z,6.90
2023-04-13T00:03:17.231Z,5.60
2023-04-13T00:04:39.978Z,4.80
2023-04-13T00:06:02.929Z,4.20
2023-04-13T00:07:28.021Z,6.83
2023-04-13T00:08:50.368Z,7.60
2023-04-13T00:10:12.414Z,5.50
2023-04-13T00:11:34.503Z,5.13
2023-04-13T00:12:58.247Z,6.20
2023-04-13T00:14:20.283Z,6.27
2023-04-13T00:15:43.318Z,4.60
2023-04-13T00:17:05.566Z,7.23
2023-04-13T00:18:27.765Z,5.57
2023-04-13T00:19:50.177Z,5.83
2023-04-13T00:21:12.197Z,7.50
2023-04-13T00:22:34.699Z,6.67
2023-04-13T00:23:57.014Z,7.17
2023-04-13T00:25:19.373Z,5.67
2023-04-13T00:26:41.503Z,4.30
2023-04-13T00:28:04.118Z,8.70
2023-04-13T00:29:26.200Z,7.40
2023-04-13T00:30:48.303Z,4.20
2023-04-13T00:32:10.369Z,5.10
2023-04-13T00:33:32.513Z,10.20
2023-04-13T00:34:54.591Z,6.50
2023-04-13T00:36:16.663Z,8.00
2023-04-13T00:37:39.777Z,7.10
2023-04-13T00:39:01.816Z,9.17
2023-04-13T00:40:24.510Z,6.17
2023-04-13T00:41:46.637Z,7.90
2023-04-13T00:43:08.663Z,10.60
2023-04-13T00:44:30.811Z,6.13
2023-04-13T00:45:52.942Z,6.80
2023-04-13T00:47:18.913Z,6.87
2023-04-13T00:48:41.180Z,5.17
2023-04-13T00:50:06.280Z,4.23
2023-04-13T00:51:30.288Z,6.30
2023-04-13T00:52:53.316Z,9.63
2023-04-13T00:54:16.882Z,9.97
2023-04-13T00:55:42.003Z,8.80
2023-04-13T00:57:05.512Z,8.33
2023-04-13T00:58:28.116Z,7.03
2023-04-13T00:59:50.318Z,7.20
2023-04-13T01:01:12.420Z,5.50
2023-04-13T01:02:34.886Z,6.87
2023-04-13T01:03:57.329Z,6.20
2023-04-13T01:05:20.213Z,7.27
2023-04-13T01:07:04.770Z,8.40
2023-04-13T01:08:38.696Z,6.43
2023-04-13T01:10:28.998Z,10.03
2023-04-13T01:12:18.831Z,7.17
2023-04-13T01:13:52.783Z,8.70
2023-04-13T01:15:16.845Z,6.13
2023-04-13T01:16:49.428Z,7.73
2023-04-13T01:18:15.549Z,10.30
2023-04-13T01:19:46.572Z,6.90
2023-04-13T01:21:13.022Z,6.65
2023-04-13T01:22:38.244Z,7.63
2023-04-13T01:24:25.540Z,9.60
2023-04-13T01:25:57.505Z,10.23
2023-04-13T01:27:44.678Z,11.90
2023-04-13T01:29:06.919Z,6.53
2023-04-13T01:30:31.545Z,5.90
2023-04-13T01:31:54.377Z,6.43
2023-04-13T01:33:16.708Z,6.03
2023-04-13T01:34:39.171Z,8.50
2023-04-13T01:36:02.489Z,6.53
2023-04-13T01:37:25.679Z,8.23
2023-04-13T01:38:48.381Z,8.80
2023-04-13T01:40:13.724Z,10.23
2023-04-13T01:41:36.211Z,10.33
2023-04-13T01:42:58.507Z,10.83
2023-04-13T01:44:20.725Z,9.17
2023-04-13T01:46:04.782Z,7.90
2023-04-13T01:47:27.946Z,9.30
2023-04-13T01:48:56.455Z,8.50
2023-04-13T01:50:33.558Z,9.30
2023-04-13T01:51:58.175Z,7.00
2023-04-13T01:53:25.283Z,7.50
2023-04-13T01:54:50.101Z,6.10
2023-04-13T01:56:13.146Z,11.93
2023-04-13T01:57:37.075Z,9.63
2023-04-13T01:59:00.018Z,7.97
2023-04-13T02:00:22.177Z,9.07
2023-04-13T02:01:45.027Z,6.63
2023-04-13T02:03:09.693Z,10.37
2023-04-13T02:04:31.899Z,7.93
2023-04-13T02:05:54.362Z,6.70
2023-04-13T02:07:16.928Z,7.00
2023-04-13T02:08:40.195Z,10.70
2023-04-13T02:10:05.972Z,8.60
2023-04-13T02:11:28.476Z,7.50
2023-04-13T02:12:50.531Z,12.63
2023-04-13T02:14:12.550Z,8.67
2023-04-13T02:15:36.010Z,7.30
2023-04-13T02:16:58.143Z,11.77
2023-04-13T02:18:20.237Z,7.00
2023-04-13T02:19:43.913Z,8.00
2023-04-13T02:21:11.268Z,6.63
2023-04-13T02:22:33.595Z,11.30
2023-04-13T02:23:57.377Z,7.87
2023-04-13T02:25:19.668Z,8.40
2023-04-13T02:26:42.164Z,7.17
2023-04-13T02:28:04.900Z,6.90
2023-04-13T02:29:26.951Z,10.33
2023-04-13T02:30:49.052Z,7.23
2023-04-13T02:32:11.151Z,11.60
2023-04-13T02:33:34.386Z,9.70
2023-04-13T02:34:56.455Z,9.40
2023-04-13T02:36:19.081Z,11.13
2023-04-13T02:37:41.548Z,7.90
2023-04-13T02:39:03.860Z,7.13
2023-04-13T02:40:27.831Z,8.07
2023-04-13T02:41:49.957Z,7.00
2023-04-13T02:43:12.377Z,10.40
2023-04-13T02:44:34.664Z,8.03
2023-04-13T02:45:57.571Z,8.53
2023-04-13T02:47:19.673Z,10.30
2023-04-13T02:48:42.061Z,9.67
2023-04-13T02:50:04.539Z,7.37
2023-04-13T02:51:27.923Z,8.37
2023-04-13T02:52:50.271Z,7.67
2023-04-13T02:54:12.433Z,6.80
2023-04-13T02:55:34.782Z,10.90
2023-04-13T02:56:57.902Z,8.63
2023-04-13T02:58:21.419Z,9.77
2023-04-13T02:59:43.614Z,6.57
2023-04-13T03:01:06.541Z,6.70
2023-04-13T03:02:30.108Z,6.47
2023-04-13T03:03:52.326Z,9.03
2023-04-13T03:05:14.543Z,10.90
2023-04-13T03:06:36.963Z,7.07
2023-04-13T03:07:59.432Z,10.73
2023-04-13T03:09:21.834Z,10.73
2023-04-13T03:10:44.907Z,7.53
2023-04-13T03:12:09.871Z,9.53
2023-04-13T03:13:32.278Z,6.70
2023-04-13T03:14:54.397Z,8.13
2023-04-13T03:16:17.649Z,10.03
2023-04-13T03:17:41.445Z,9.10
2023-04-13T03:19:05.452Z,10.43
2023-04-13T03:20:29.108Z,9.13
2023-04-13T03:21:51.198Z,7.50
2023-04-13T03:23:13.237Z,6.20
2023-04-13T03:24:35.803Z,7.87
2023-04-13T03:25:57.973Z,8.90
2023-04-13T03:27:21.500Z,7.70
2023-04-13T03:28:43.564Z,8.83
2023-04-13T03:30:07.393Z,8.80
2023-04-13T03:31:29.703Z,8.27
2023-04-13T03:32:52.390Z,7.47
2023-04-13T03:34:14.623Z,8.67
2023-04-13T03:35:36.689Z,11.33
2023-04-13T03:36:58.774Z,9.87
2023-04-13T03:38:20.968Z,8.13
2023-04-13T03:39:43.069Z,9.60
2023-04-13T03:41:05.582Z,7.97
2023-04-13T03:42:27.615Z,9.00
2023-04-13T03:43:50.584Z,10.33
2023-04-13T03:45:12.871Z,9.90
2023-04-13T03:46:38.408Z,10.30
2023-04-13T03:48:00.641Z,13.03
2023-04-13T03:49:22.798Z,7.63
2023-04-13T03:50:45.020Z,10.53
2023-04-13T03:52:07.098Z,10.63
2023-04-13T03:53:29.188Z,10.70
2023-04-13T03:54:51.296Z,9.23
2023-04-13T03:56:13.463Z,8.93
2023-04-13T03:57:36.165Z,7.43
2023-04-13T03:58:58.998Z,9.07
2023-04-13T04:00:21.314Z,8.43
2023-04-13T04:01:43.393Z,9.17
2023-04-13T04:03:05.829Z,11.30
2023-04-13T04:04:28.120Z,9.23
2023-04-13T04:05:50.460Z,10.43
2023-04-13T04:07:12.550Z,11.33
2023-04-13T04:08:34.619Z,11.50
2023-04-13T04:09:56.617Z,9.40
2023-04-13T04:11:19.018Z,11.03
2023-04-13T04:12:41.070Z,12.50
2023-04-13T04:14:03.441Z,9.73
2023-04-13T04:15:25.642Z,10.03
2023-04-13T04:16:47.750Z,9.93
2023-04-13T04:18:10.434Z,12.00
2023-04-13T04:19:32.647Z,9.33
2023-04-13T04:20:54.694Z,9.40
2023-04-13T04:22:16.815Z,10.20
2023-04-13T04:23:39.921Z,9.13
2023-04-13T04:25:02.061Z,10.67
2023-04-13T04:26:25.862Z,9.50
2023-04-13T04:27:57.767Z,9.50
2023-04-13T04:29:22.629Z,9.27
2023-04-13T04:30:45.792Z,8.27
2023-04-13T04:32:10.799Z,9.07
2023-04-13T04:33:33.390Z,9.20
2023-04-13T04:34:55.494Z,7.70
2023-04-13T04:36:18.462Z,10.20
2023-04-13T04:37:40.821Z,11.43
2023-04-13T04:39:04.558Z,9.33
2023-04-13T04:40:27.983Z,8.60
2023-04-13T04:42:04.206Z,9.67
2023-04-13T04:43:27.224Z,10.93
2023-04-13T04:44:50.365Z,9.13
2023-04-13T04:46:16.222Z,10.93
2023-04-13T04:47:42.166Z,9.03
2023-04-13T04:49:04.384Z,13.43
2023-04-13T04:50:26.578Z,8.97
2023-04-13T04:51:49.351Z,7.50
2023-04-13T04:53:12.163Z,9.63
2023-04-13T04:54:34.309Z,11.53
2023-04-13T04:55:56.370Z,10.17
2023-04-13T04:57:18.485Z,9.70
2023-04-13T04:58:40.508Z,9.23
2023-04-13T05:00:18.265Z,9.60
2023-04-13T05:01:43.103Z,10.50
2023-04-13T05:03:07.350Z,11.90
2023-04-13T05:04:29.495Z,9.70
2023-04-13T05:05:51.604Z,9.03
2023-04-13T05:07:17.610Z,9.60
2023-04-13T05:08:39.715Z,10.30
2023-04-13T05:10:01.798Z,8.77
2023-04-13T05:11:23.980Z,9.17
2023-04-13T05:12:46.056Z,11.63
2023-04-13T05:14:08.290Z,9.50
2023-04-13T05:15:30.561Z,10.00
2023-04-13T05:16:52.716Z,8.80
2023-04-13T05:18:15.546Z,9.60
2023-04-13T05:19:39.244Z,9.20
2023-04-13T05:21:01.672Z,11.17
2023-04-13T05:22:23.721Z,11.23
2023-04-13T05:23:46.459Z,8.03
2023-04-13T05:25:09.465Z,8.83
2023-04-13T05:26:31.625Z,7.90
2023-04-13T05:27:53.638Z,8.87
2023-04-13T05:29:15.860Z,9.60
2023-04-13T05:30:37.963Z,9.20
2023-04-13T05:32:00.375Z,10.43
2023-04-13T05:33:22.529Z,6.70
2023-04-13T05:34:44.594Z,8.03
2023-04-13T05:36:08.275Z,6.97
2023-04-13T05:37:30.456Z,9.87
2023-04-13T05:38:53.142Z,9.50
2023-04-13T05:40:15.355Z,8.63
2023-04-13T05:41:37.436Z,8.27
2023-04-13T05:42:59.492Z,7.50
2023-04-13T05:44:21.656Z,8.13
2023-04-13T05:45:43.814Z,7.60
2023-04-13T05:47:05.995Z,7.83
2023-04-13T05:48:28.142Z,7.63
2023-04-13T05:49:50.897Z,8.27
2023-04-13T05:51:13.042Z,7.43
2023-04-13T05:52:35.188Z,6.93
2023-04-13T05:53:57.671Z,7.97
2023-04-13T05:55:21.833Z,7.73
2023-04-13T05:56:43.938Z,8.23
2023-04-13T05:58:06.020Z,10.93
2023-04-13T05:59:28.307Z,11.17
2023-04-13T06:00:50.706Z,6.63
2023-04-13T06:02:12.825Z,13.13
2023-04-13T06:03:35.199Z,9.80
2023-04-13T06:04:57.999Z,11.80
2023-04-13T06:06:21.138Z,9.40
2023-04-13T06:07:46.543Z,7.50
2023-04-13T06:09:09.001Z,9.93
2023-04-13T06:10:31.349Z,10.60
2023-04-13T06:11:54.338Z,10.73
2023-04-13T06:13:16.455Z,12.07
2023-04-13T06:14:38.604Z,11.87
2023-04-13T06:16:01.027Z,8.23
2023-04-13T06:17:23.202Z,8.50
2023-04-13T06:18:45.446Z,10.93
2023-04-13T06:20:10.698Z,9.47
2023-04-13T06:21:32.908Z,11.63
2023-04-13T06:22:55.029Z,8.13
2023-04-13T06:24:18.005Z,10.37
2023-04-13T06:25:40.623Z,11.10
2023-04-13T06:27:02.840Z,10.17
2023-04-13T06:28:29.057Z,7.80
2023-04-13T06:29:51.266Z,11.60
2023-04-13T06:31:13.848Z,8.50
2023-04-13T06:32:36.910Z,9.87
2023-04-13T06:33:59.100Z,6.43
2023-04-13T06:35:21.801Z,8.73
2023-04-13T06:36:44.074Z,8.73
2023-04-13T06:38:07.090Z,8.20
2023-04-13T06:39:30.636Z,6.80
2023-04-13T06:40:54.015Z,8.47
2023-04-13T06:42:16.579Z,9.60
2023-04-13T06:43:38.683Z,8.10
2023-04-13T06:45:00.885Z,8.33
2023-04-13T06:46:22.956Z,6.17
2023-04-13T06:47:45.234Z,5.67
2023-04-13T06:49:07.550Z,7.10
2023-04-13T06:50:29.656Z,7.40
2023-04-13T06:51:51.741Z,8.80
2023-04-13T06:53:13.778Z,7.10
2023-04-13T06:54:36.128Z,8.87
2023-04-13T06:55:58.233Z,6.40
2023-04-13T06:57:20.896Z,8.87
2023-04-13T06:58:42.952Z,9.47
2023-04-13T07:00:15.330Z,9.03
2023-04-13T07:01:44.310Z,6.40
2023-04-13T07:03:06.529Z,7.53
2023-04-13T07:04:30.782Z,9.03
2023-04-13T07:05:54.588Z,5.63
2023-04-13T07:07:16.710Z,7.73
2023-04-13T07:08:38.824Z,7.63
2023-04-13T07:10:00.975Z,7.50
2023-04-13T07:11:28.080Z,6.53
2023-04-13T07:12:50.241Z,10.63
2023-04-13T07:14:12.388Z,9.97
2023-04-13T07:15:37.386Z,9.73
2023-04-13T07:16:59.581Z,9.23
2023-04-13T07:18:21.656Z,9.03
2023-04-13T07:19:47.917Z,9.17
2023-04-13T07:21:09.947Z,6.93
2023-04-13T07:22:35.514Z,5.70
2023-04-13T07:23:57.795Z,8.60
2023-04-13T07:25:21.549Z,10.30
2023-04-13T07:26:43.589Z,5.93
2023-04-13T07:28:05.658Z,7.60
2023-04-13T07:29:27.800Z,6.77
2023-04-13T07:30:49.921Z,10.20
2023-04-13T07:32:11.980Z,6.03
2023-04-13T07:33:34.114Z,5.77
2023-04-13T07:35:01.227Z,6.43
2023-04-13T07:36:23.874Z,11.10
2023-04-13T07:37:46.701Z,14.00
2023-04-13T07:39:09.682Z,6.00
2023-04-13T07:40:31.782Z,8.00
2023-04-13T07:41:53.815Z,7.57
2023-04-13T07:43:16.491Z,10.70
2023-04-13T07:44:38.577Z,10.00
2023-04-13T07:46:00.656Z,11.20
2023-04-13T07:47:22.954Z,8.90
2023-04-13T07:48:45.126Z,7.83
2023-04-13T07:50:08.131Z,6.70
2023-04-13T07:51:32.175Z,8.07
2023-04-13T07:52:54.645Z,7.97
2023-04-13T07:54:17.226Z,5.90
2023-04-13T07:55:39.345Z,9.83
2023-04-13T07:57:02.351Z,7.60
2023-04-13T07:58:24.447Z,4.20
2023-04-13T07:59:46.906Z,5.53
2023-04-13T08:01:09.611Z,4.50
2023-04-13T08:02:32.105Z,8.60
2023-04-13T08:03:54.569Z,11.73
2023-04-13T08:05:17.068Z,4.33
2023-04-13T08:06:39.508Z,9.63
2023-04-13T08:08:01.650Z,9.27
2023-04-13T08:09:23.768Z,8.87
2023-04-13T08:10:45.874Z,7.10
2023-04-13T08:12:08.661Z,8.07
2023-04-13T08:13:31.534Z,8.17
2023-04-13T08:14:54.247Z,7.10
2023-04-13T08:16:16.932Z,10.27
2023-04-13T08:17:39.258Z,7.20
2023-04-13T08:19:01.982Z,7.50
2023-04-13T08:20:24.232Z,7.50
2023-04-13T08:21:46.519Z,11.90
2023-04-13T08:24:31.160Z,5.67
2023-04-13T08:25:53.578Z,10.20
2023-04-13T08:27:15.791Z,9.20
2023-04-13T08:28:37.882Z,3.70
2023-04-13T08:30:02.282Z,9.33
2023-04-13T08:31:24.694Z,9.97
2023-04-13T08:32:46.978Z,7.33
2023-04-13T08:34:11.545Z,8.23
2023-04-13T08:35:34.281Z,6.80
2023-04-13T08:36:57.366Z,5.20
2023-04-13T08:38:19.920Z,5.33
2023-04-13T08:39:42.146Z,8.37
2023-04-13T08:41:04.665Z,5.53
2023-04-13T08:42:28.976Z,2.80
2023-04-13T08:43:51.821Z,15.63
2023-04-13T08:45:14.380Z,7.10
2023-04-13T08:46:37.837Z,7.57
2023-04-13T08:48:01.945Z,6.17
2023-04-13T08:49:25.545Z,4.50
2023-04-13T08:50:48.374Z,4.67
2023-04-13T08:52:11.502Z,5.07
2023-04-13T08:53:33.690Z,4.83
2023-04-13T08:55:01.001Z,4.07
2023-04-13T08:56:31.045Z,5.23
2023-04-13T08:58:03.080Z,3.23
2023-04-13T08:59:28.021Z,3.83
2023-04-13T09:00:51.011Z,6.60
2023-04-13T09:02:14.368Z,4.00
2023-04-13T09:03:49.051Z,5.10
2023-04-13T09:05:16.331Z,5.83
2023-04-13T09:06:43.840Z,5.90
2023-04-13T09:08:08.007Z,4.87
2023-04-13T09:09:32.554Z,9.07
2023-04-13T09:10:56.952Z,5.60
2023-04-13T09:12:19.113Z,5.07
2023-04-13T09:13:41.337Z,5.60
2023-04-13T09:15:07.284Z,4.67
2023-04-13T09:16:29.615Z,2.67
2023-04-13T09:17:53.030Z,6.20
2023-04-13T09:19:15.414Z,6.37
2023-04-13T09:20:37.989Z,4.37
2023-04-13T09:22:01.128Z,8.00
2023-04-13T09:23:23.450Z,3.40
2023-04-13T09:24:45.979Z,7.53
2023-04-13T09:26:09.093Z,5.80
2023-04-13T09:27:31.355Z,6.77
2023-04-13T09:28:56.837Z,6.37
2023-04-13T09:30:21.529Z,7.67
2023-04-13T09:31:45.709Z,4.53
2023-04-13T09:33:10.469Z,4.70
2023-04-13T09:34:32.753Z,7.03
2023-04-13T09:35:54.818Z,3.43
2023-04-13T09:37:18.528Z,5.03
2023-04-13T09:38:42.632Z,5.30
2023-04-13T09:40:11.529Z,4.67
2023-04-13T09:41:38.531Z,5.20
2023-04-13T09:43:04.569Z,3.47
2023-04-13T09:44:34.587Z,5.70
2023-04-13T09:45:57.024Z,5.00
2023-04-13T09:47:19.586Z,8.57
2023-04-13T09:48:42.251Z,5.93
2023-04-13T09:50:05.376Z,2.70
2023-04-13T09:51:36.547Z,5.43
2023-04-13T09:53:02.938Z,3.97
2023-04-13T09:54:25.281Z,3.57
2023-04-13T09:55:58.057Z,5.17
2023-04-13T09:57:30.709Z,6.70
2023-04-13T09:58:53.563Z,4.97
2023-04-13T10:00:23.541Z,4.53
2023-04-13T10:01:46.067Z,6.07
2023-04-13T10:03:13.316Z,4.50
2023-04-13T10:04:36.181Z,2.87
2023-04-13T10:06:00.343Z,8.07
2023-04-13T10:07:26.728Z,3.20
2023-04-13T10:08:49.680Z,3.97
2023-04-13T10:10:12.842Z,3.57
2023-04-13T10:11:39.429Z,14.87
2023-04-13T10:13:21.797Z,3.23
2023-04-13T10:14:48.734Z,3.90
2023-04-13T10:16:23.197Z,5.53
2023-04-13T10:18:20.676Z,3.93
2023-04-13T10:19:47.973Z,4.50
2023-04-13T10:21:10.900Z,4.20
2023-04-13T10:22:33.411Z,7.80
2023-04-13T10:23:56.878Z,8.97
2023-04-13T10:25:32.053Z,4.63
2023-04-13T10:26:56.243Z,7.50
2023-04-13T10:28:18.509Z,5.23
2023-04-13T10:29:40.816Z,6.17
2023-04-13T10:31:05.679Z,4.00
2023-04-13T10:32:28.607Z,6.20
2023-04-13T10:33:51.416Z,6.47
2023-04-13T10:35:15.167Z,4.40
2023-04-13T10:36:38.440Z,6.33
2023-04-13T10:38:01.156Z,3.47
2023-04-13T10:39:29.131Z,4.13
2023-04-13T10:40:51.739Z,5.10
2023-04-13T10:42:15.959Z,1.60
2023-04-13T10:43:39.440Z,4.10
2023-04-13T10:45:01.520Z,5.53
2023-04-13T10:46:23.747Z,3.23
2023-04-13T10:47:46.010Z,6.07
2023-04-13T10:49:08.259Z,4.47
2023-04-13T10:50:31.113Z,6.53
2023-04-13T10:51:53.215Z,4.27
2023-04-13T10:53:26.729Z,3.80
2023-04-13T10:54:50.324Z,4.27
2023-04-13T10:56:16.815Z,4.60
2023-04-13T10:57:39.314Z,2.87
2023-04-13T10:59:01.708Z,7.13
2023-04-13T11:00:34.719Z,7.00
2023-04-13T11:02:10.800Z,4.67
2023-04-13T11:03:33.027Z,2.87
2023-04-13T11:04:55.359Z,3.90
2023-04-13T11:06:17.859Z,2.60
2023-04-13T11:07:41.507Z,4.77
2023-04-13T11:09:07.622Z,7.93
2023-04-13T11:10:30.256Z,3.17
2023-04-13T11:11:52.298Z,4.10
2023-04-13T11:13:14.308Z,6.50
2023-04-13T11:14:38.719Z,5.73
2023-04-13T11:16:05.617Z,3.97
2023-04-13T11:17:28.126Z,6.53
2023-04-13T11:19:03.767Z,5.40
2023-04-13T11:20:36.850Z,4.83
2023-04-13T11:21:59.623Z,5.43
2023-04-13T11:23:23.978Z,3.67
2023-04-13T11:24:47.634Z,7.70
2023-04-13T11:26:09.786Z,3.33
2023-04-13T11:27:32.357Z,7.73
2023-04-13T11:28:54.531Z,5.93
2023-04-13T11:30:17.092Z,3.67
2023-04-13T11:31:41.921Z,2.70
2023-04-13T11:33:04.292Z,7.33
2023-04-13T11:34:29.102Z,3.60
2023-04-13T11:35:51.703Z,5.53
2023-04-13T11:37:13.851Z,5.27
2023-04-13T11:38:38.938Z,3.37
2023-04-13T11:40:09.876Z,6.20
2023-04-13T11:41:33.000Z,1.77
2023-04-13T11:42:58.416Z,3.27
2023-04-13T11:44:20.624Z,2.90
2023-04-13T11:45:43.860Z,2.37
2023-04-13T11:47:08.694Z,3.73
2023-04-13T11:48:31.144Z,3.27
2023-04-13T11:49:53.584Z,2.60
2023-04-13T11:51:16.376Z,3.20
2023-04-13T11:52:40.341Z,4.03
2023-04-13T11:54:02.952Z,7.03
2023-04-13T11:55:26.141Z,5.20
2023-04-13T11:56:49.217Z,4.47
2023-04-13T11:58:18.670Z,3.67
2023-04-13T11:59:40.829Z,4.97
2023-04-13T12:01:13.744Z,1.87
2023-04-13T12:02:59.572Z,3.00
2023-04-13T12:04:23.408Z,3.93
2023-04-13T12:05:47.394Z,4.53
2023-04-13T12:07:16.647Z,2.03
2023-04-13T12:08:39.583Z,3.30
2023-04-13T12:10:06.136Z,2.30
2023-04-13T12:11:42.806Z,4.93
2023-04-13T12:16:55.469Z,6.50
2023-04-13T12:18:15.644Z,4.20
2023-04-13T12:19:43.294Z,5.23
2023-04-13T12:21:06.481Z,3.20
2023-04-13T12:22:54.889Z,2.87
2023-04-13T12:24:33.009Z,4.50
2023-04-13T12:25:57.966Z,3.17
2023-04-13T12:27:20.019Z,2.37
2023-04-13T12:28:42.057Z,4.73
2023-04-13T12:30:04.624Z,4.63
2023-04-13T12:31:36.344Z,4.20
2023-04-13T12:32:58.567Z,3.50
2023-04-13T12:34:22.642Z,3.80
2023-04-13T12:35:44.785Z,2.50
2023-04-13T12:37:07.604Z,6.10
2023-04-13T12:38:31.046Z,3.57
2023-04-13T12:39:54.210Z,2.90
2023-04-13T12:41:16.408Z,2.63
2023-04-13T12:42:45.987Z,3.97
2023-04-13T12:44:08.860Z,3.20
2023-04-13T12:45:31.237Z,4.30
2023-04-13T12:46:53.349Z,3.70
2023-04-13T12:48:15.740Z,1.83
2023-04-13T12:49:37.869Z,2.60
2023-04-13T12:51:00.240Z,2.87
2023-04-13T12:52:22.440Z,2.80
2023-04-13T12:53:44.538Z,3.17
2023-04-13T12:55:07.296Z,3.73
2023-04-13T12:56:30.443Z,2.27
2023-04-13T12:57:53.333Z,1.63
2023-04-13T12:59:15.767Z,4.53
2023-04-13T13:00:38.150Z,4.60
2023-04-13T13:02:00.381Z,2.87
2023-04-13T13:03:23.560Z,2.47
2023-04-13T13:04:45.900Z,1.83
2023-04-13T13:06:08.519Z,4.90
2023-04-13T13:07:31.115Z,1.27
2023-04-13T13:08:53.203Z,3.73
2023-04-13T13:11:44.248Z,7.50
2023-04-13T13:13:06.443Z,2.50
2023-04-13T13:14:29.134Z,10.93
2023-04-13T13:15:51.780Z,1.50
2023-04-13T13:17:13.906Z,1.77
2023-04-13T13:18:48.939Z,3.23
2023-04-13T13:20:13.956Z,1.77
2023-04-13T13:21:36.145Z,4.40
2023-04-13T13:22:58.489Z,2.30
2023-04-13T13:24:20.738Z,4.73
2023-04-13T13:25:57.066Z,1.47
2023-04-13T13:28:52.425Z,3.00
2023-04-13T13:30:15.424Z,1.43
2023-04-13T13:31:37.623Z,8.23
2023-04-13T13:32:59.763Z,2.37
2023-04-13T13:34:21.933Z,2.03
2023-04-13T13:35:44.047Z,1.97
2023-04-13T13:37:06.395Z,3.50
2023-04-13T13:38:29.228Z,3.37
2023-04-13T13:39:51.860Z,2.30
2023-04-13T13:41:14.298Z,4.00
2023-04-13T13:42:49.988Z,4.70
2023-04-13T13:44:13.805Z,2.47
2023-04-13T13:45:35.966Z,2.10
2023-04-13T13:46:58.086Z,4.53
2023-04-13T13:48:21.670Z,1.90
2023-04-13T13:49:43.862Z,2.90
2023-04-13T13:51:07.860Z,1.73
2023-04-13T13:52:30.338Z,2.80
2023-04-13T13:53:52.362Z,3.50
2023-04-13T13:55:14.689Z,4.23
2023-04-13T13:56:36.828Z,1.63
2023-04-13T13:57:59.268Z,2.30
2023-04-13T13:59:21.530Z,1.20
2023-04-13T14:00:43.878Z,2.70
2023-04-13T14:02:06.700Z,1.63
2023-04-13T14:03:28.917Z,1.87
2023-04-13T14:04:51.106Z,3.37
2023-04-13T14:06:13.236Z,2.17
2023-04-13T14:07:35.344Z,1.53
2023-04-13T14:08:57.459Z,1.53
2023-04-13T14:10:19.602Z,3.80
2023-04-13T14:11:41.707Z,0.90
2023-04-13T14:13:03.923Z,2.07
2023-04-13T14:14:26.069Z,3.27
2023-04-13T14:15:48.172Z,2.40
2023-04-13T14:17:10.406Z,2.70
2023-04-13T14:18:32.728Z,0.90
2023-04-13T14:19:55.025Z,1.77
2023-04-13T14:21:21.338Z,3.10
2023-04-13T14:22:43.405Z,2.50
2023-04-13T14:24:05.921Z,1.53
2023-04-13T14:25:27.997Z,1.73
2023-04-13T14:26:50.053Z,1.47
2023-04-13T14:28:12.794Z,2.60
2023-04-13T14:29:34.788Z,2.23
2023-04-13T14:30:57.072Z,1.10
2023-04-13T14:32:19.321Z,2.60
2023-04-13T14:33:44.405Z,2.00
2023-04-13T14:35:06.656Z,1.87
2023-04-13T14:36:28.747Z,4.30
2023-04-13T14:37:50.756Z,2.97
2023-04-13T14:39:12.832Z,1.43
2023-04-13T14:40:35.903Z,3.43
2023-04-13T14:41:57.965Z,1.53
2023-04-13T14:43:20.139Z,2.00
2023-04-13T14:44:42.989Z,2.00
2023-04-13T14:46:05.376Z,1.97
2023-04-13T14:47:27.613Z,2.33
2023-04-13T14:48:49.667Z,1.27
2023-04-13T14:50:18.467Z,3.10
2023-04-13T14:51:40.512Z,1.90
2023-04-13T14:53:06.527Z,1.93
2023-04-13T14:54:28.651Z,1.67
2023-04-13T14:55:50.794Z,1.63
2023-04-13T14:57:12.929Z,4.00
2023-04-13T14:58:35.028Z,1.07
2023-04-13T14:59:57.115Z,4.60
2023-04-13T15:01:21.895Z,1.07
2023-04-13T15:02:44.350Z,3.30
2023-04-13T15:04:06.710Z,2.00
2023-04-13T15:05:29.369Z,1.83
2023-04-13T15:06:54.083Z,1.57
2023-04-13T15:08:16.803Z,1.00
2023-04-13T15:09:39.131Z,2.70
2023-04-13T15:11:01.556Z,1.77
2023-04-13T15:12:23.629Z,5.63
2023-04-13T15:13:46.019Z,1.43
2023-04-13T15:15:08.810Z,1.40
2023-04-13T15:16:31.426Z,1.97
2023-04-13T15:17:53.561Z,2.97
2023-04-13T15:19:15.940Z,1.30
2023-04-13T15:20:38.227Z,1.63
2023-04-13T15:22:00.436Z,1.67
2023-04-13T15:23:22.626Z,2.43
2023-04-13T15:24:44.709Z,1.67
2023-04-13T15:26:06.885Z,2.70
2023-04-13T15:27:29.178Z,1.53
2023-04-13T15:28:51.303Z,2.70
2023-04-13T15:30:13.724Z,4.13
2023-04-13T15:31:38.925Z,2.13
2023-04-13T15:33:03.115Z,2.30
2023-04-13T15:34:25.288Z,1.50
2023-04-13T15:35:47.411Z,3.13
2023-04-13T15:37:09.613Z,2.80
2023-04-13T15:38:31.686Z,1.80
2023-04-13T15:39:54.714Z,1.70
2023-04-13T15:41:16.879Z,3.63
2023-04-13T15:42:39.753Z,1.47
2023-04-13T15:44:03.167Z,1.30
2023-04-13T15:45:25.409Z,1.73
2023-04-13T15:46:48.025Z,3.13
2023-04-13T15:48:11.122Z,2.73
2023-04-13T15:49:33.237Z,4.53
2023-04-13T15:51:01.696Z,1.57
2023-04-13T15:52:23.793Z,2.60
2023-04-13T15:53:45.803Z,2.23
2023-04-13T15:55:09.135Z,3.37
2023-04-13T15:56:31.241Z,1.73
2023-04-13T15:57:54.139Z,6.70
2023-04-13T15:59:16.242Z,1.53
2023-04-13T16:00:38.258Z,2.03
2023-04-13T16:02:00.570Z,2.13
2023-04-13T16:03:22.971Z,1.73
2023-04-13T16:04:45.403Z,2.70
2023-04-13T16:06:08.607Z,1.93
2023-04-13T16:07:30.847Z,2.25
2023-04-13T16:08:54.266Z,5.03
2023-04-13T16:10:16.863Z,2.50
2023-04-13T16:11:38.901Z,1.13
2023-04-13T16:13:02.692Z,1.17
2023-04-13T16:14:25.268Z,1.30
2023-04-13T16:15:53.081Z,1.90
2023-04-13T16:17:15.428Z,4.37
2023-04-13T16:18:40.169Z,2.37
2023-04-13T16:20:20.513Z,2.13
2023-04-13T16:21:45.610Z,2.90
2023-04-13T16:23:07.769Z,8.10
2023-04-13T16:24:30.004Z,4.10
2023-04-13T16:25:52.123Z,8.00
2023-04-13T16:27:14.517Z,4.03
2023-04-13T16:28:37.325Z,3.90
2023-04-13T16:29:59.732Z,1.73
2023-04-13T16:31:21.937Z,2.95
2023-04-13T16:32:45.673Z,1.10
2023-04-13T16:34:24.453Z,2.63
2023-04-13T16:35:47.427Z,1.67
2023-04-13T16:37:09.555Z,5.13
2023-04-13T16:38:31.623Z,2.83
2023-04-13T16:39:53.677Z,2.57
2023-04-13T16:41:16.906Z,2.93
2023-04-13T16:42:40.276Z,2.37
2023-04-13T16:44:03.092Z,1.47
2023-04-13T16:45:25.560Z,2.60
2023-04-13T16:46:47.766Z,2.40
2023-04-13T16:48:09.803Z,4.03
2023-04-13T16:49:32.612Z,1.17
2023-04-13T16:50:58.953Z,4.20
2023-04-13T16:52:21.076Z,3.67
2023-04-13T16:53:44.177Z,1.00
2023-04-13T16:55:07.080Z,3.30
2023-04-13T16:56:29.811Z,2.60
2023-04-13T16:57:51.969Z,3.23
2023-04-13T16:59:14.165Z,3.40
2023-04-13T17:00:36.232Z,2.67
2023-04-13T17:01:58.875Z,4.40
2023-04-13T17:03:21.115Z,3.80
2023-04-13T17:04:43.299Z,1.80
2023-04-13T17:06:06.108Z,1.00
2023-04-13T17:07:28.448Z,3.60
2023-04-13T17:08:50.714Z,1.13
2023-04-13T17:10:14.133Z,2.20
2023-04-13T17:11:36.446Z,1.13
2023-04-13T17:12:58.486Z,2.50
2023-04-13T17:14:20.559Z,1.63
2023-04-13T17:15:42.895Z,1.60
2023-04-13T17:17:05.005Z,3.27
2023-04-13T17:18:27.289Z,4.83
2023-04-13T17:19:53.164Z,1.70
2023-04-13T17:21:15.186Z,2.40
2023-04-13T17:22:38.012Z,3.67
2023-04-13T17:24:00.334Z,4.87
2023-04-13T17:25:22.548Z,4.37
2023-04-13T17:26:44.780Z,4.47
2023-04-13T17:28:07.564Z,2.97
2023-04-13T17:29:29.636Z,2.70
2023-04-13T17:30:51.865Z,4.40
2023-04-13T17:32:14.013Z,3.13
2023-04-13T17:33:36.350Z,1.23
2023-04-13T17:34:58.883Z,1.80
2023-04-13T17:36:23.591Z,2.20
2023-04-13T17:37:45.639Z,3.50
2023-04-13T17:39:08.324Z,2.80
2023-04-13T17:40:30.628Z,4.17
2023-04-13T17:41:52.706Z,4.37
2023-04-13T17:43:15.129Z,3.97
2023-04-13T17:44:37.791Z,2.70
2023-04-13T17:45:59.887Z,5.87
2023-04-13T17:47:24.466Z,4.50
2023-04-13T17:48:46.558Z,3.10
2023-04-13T17:50:09.164Z,2.77
2023-04-13T17:51:31.715Z,2.93
2023-04-13T17:52:53.815Z,3.33
2023-04-13T17:54:16.342Z,2.83
2023-04-13T17:55:38.925Z,3.80
2023-04-13T17:57:01.843Z,3.67
2023-04-13T17:58:23.896Z,2.23
2023-04-13T17:59:47.246Z,1.93
2023-04-13T18:01:10.964Z,4.13
2023-04-13T18:02:33.254Z,3.07
2023-04-13T18:03:56.036Z,1.20
2023-04-13T18:05:18.410Z,2.73
2023-04-13T18:06:41.245Z,2.40
2023-04-13T18:08:03.394Z,7.00
2023-04-13T18:09:25.604Z,2.70
2023-04-13T18:10:47.798Z,1.70
2023-04-13T18:12:09.882Z,1.40
2023-04-13T18:13:31.987Z,1.80
2023-04-13T18:14:54.157Z,3.40
2023-04-13T18:16:16.212Z,2.40
2023-04-13T18:17:39.070Z,1.67
2023-04-13T18:19:01.410Z,4.40
2023-04-13T18:20:23.497Z,4.77
2023-04-13T18:21:45.511Z,4.30
2023-04-13T18:23:07.614Z,2.57
2023-04-13T18:24:29.757Z,3.53
2023-04-13T18:25:52.147Z,2.10
2023-04-13T18:27:14.232Z,2.40
2023-04-13T18:28:40.883Z,6.57
2023-04-13T18:30:03.212Z,4.23
2023-04-13T18:31:25.848Z,3.93
2023-04-13T18:32:51.435Z,10.33
2023-04-13T18:34:14.213Z,3.97
2023-04-13T18:35:44.283Z,3.97
2023-04-13T18:37:06.378Z,4.83
2023-04-13T18:38:28.511Z,5.47